Terminal Aerodrome Forecast
Issued by NWS

Home | Current Version | Previous Version | Text Only | Print | Product List | Glossary On
Versions: 1 2 3 4 5 6 7 8 9 10 11 12 13 14 15 16 17 18 19 20 21 22 23 24 25 26 27 28 29 30 31 32 33
000
FTPQ31 PGUM 040547
TAFGUM
TAF

TAF
PGRO 040547Z 0406/0506 04015KT P6SM -SHRA VCSH SCT012 BKN025 OVC120
      TEMPO 0407/0411 04025G35KT 2SM +SHRA SCT008 BKN014 OVC050
     FM050000 34020G30KT P6SM VCSH BKN040 BKN100=

USA.gov is the U.S. government's official web portal to all federal, state and local government web resources and services.